Forside
METAR-TAF:

METAR-TAF

Lufthavne :

Pointe-Noire, Congo

Breddekreds: 04-49S, længdekreds: 011-54E, højde: 17 m

Aktuelle vejr

Denne rapport blev lavet for 1 time og 8 minutter siden, kl. 16:00 UTC
Vind 8 kt fra sydvest
Temperatur 25°C
Fugtighed 94%
Tryk 1011 hPa
Sigt: 6000 m
Brudte skyer i en højde af 900 ft
Overskyet i en højde af 2100 ft
Nogle få skyer i en højde af 2800 ft, Cumulonimbus.
let finregn

METAR: FCPP 161600Z 22008KT 6000 -DZ BKN009 OVC021 FEW028CB 25/24 Q1011 TEMPO 4000 DZ

Tid: 18:08 (17:08 UTC)

Vejrudsigter

Denne rapport blev lavet for 6 timer og 8 minutter siden, kl. 11:00 UTC
Foreløbig gælder fra 16 på 12 UTC til 17 på 12 UTC
Vind 5 kt fra sydsydvest
Sigt: 9000 m
Spredte skyer i en højde af 1800 ft

TAF: FCPP 161100Z 1612/1712 20005KT 9000 SCT018

Vejrobservationer og prognoser fra mere end 4000 lufthavne (METAR og TAF).

De gule og røde prikker repræsenterer de meteorologiske stationer.

Flyt musen over at se navnet på stationen.

Så klik over at se vejr observationer og prognoser.

At skifte det kort: Klik på de grønne knapper med et sort kors for at zoome ind; på den grønne knap med en bindestreg for at zoome ud; eller på de grønne pile for tilstødende kort.


METAR-TAF: